Time;durP1;ratioP1;P1;durP2;ratioP2;P2;SDS_P1;SDS_P2;PMS_P1;PMS_P2;Temp;Humidity;BMP_temperature;BMP_pressure;BME280_temperature;BME280_humidity;BME280_pressure;Samples;Min_cycle;Max_cycle;Signal;HPM_P1;HPM_P2
2022/04/15 00:01:27;;;;;;;;;81.60;75.20;26.60;99.90;;;;;;5038333;28;8784;-67
2022/04/15 00:03:56;;;;;;;;;89.80;84.00;26.60;99.90;;;;;;5057180;28;8897;-68
2022/04/15 00:06:24;;;;;;;;;85.20;77.40;26.50;99.90;;;;;;5043187;28;8726;-67
2022/04/15 00:08:51;;;;;;;;;87.80;80.80;26.60;99.90;;;;;;5019247;28;8859;-68
2022/04/15 00:11:17;;;;;;;;;84.40;77.20;26.70;99.90;;;;;;5051550;28;9370;-68
2022/04/15 00:13:45;;;;;;;;;88.00;78.60;26.60;99.90;;;;;;5036663;28;8791;-68
2022/04/15 00:16:12;;;;;;;;;86.40;80.40;26.70;99.90;;;;;;5037155;28;8729;-68
2022/04/15 00:18:39;;;;;;;;;91.20;83.00;26.70;99.90;;;;;;5051960;28;8866;-68
2022/04/15 00:21:05;;;;;;;;;87.00;78.40;26.80;99.90;;;;;;5062503;28;8750;-68
2022/04/15 00:23:32;;;;;;;;;83.20;73.20;26.80;99.90;;;;;;5071560;28;8823;-69
2022/04/15 00:26:00;;;;;;;;;81.00;72.80;26.90;99.90;;;;;;5056808;28;8749;-68
2022/04/15 00:28:26;;;;;;;;;79.00;70.40;26.90;99.90;;;;;;5038526;28;8817;-68
2022/04/15 00:30:53;;;;;;;;;80.60;71.80;26.90;99.90;;;;;;5057099;28;8739;-67
2022/04/15 00:33:21;;;;;;;;;79.80;74.40;26.90;99.90;;;;;;5056196;28;8809;-68
2022/04/15 00:35:48;;;;;;;;;79.00;74.20;26.90;99.90;;;;;;5048079;28;8757;-68
2022/04/15 00:38:15;;;;;;;;;90.80;79.40;26.90;99.90;;;;;;5036462;28;8745;-68
2022/04/15 00:40:41;;;;;;;;;86.60;78.00;26.90;99.90;;;;;;5036278;28;8737;-67
2022/04/15 00:43:08;;;;;;;;;86.00;77.80;27.00;99.90;;;;;;5019886;28;8773;-68
2022/04/15 00:45:37;;;;;;;;;84.00;73.60;27.00;99.90;;;;;;5036255;28;8769;-68
2022/04/15 00:48:07;;;;;;;;;77.60;69.00;27.10;99.90;;;;;;5036295;28;8850;-68
2022/04/15 00:50:34;;;;;;;;;83.20;75.20;27.10;99.90;;;;;;5042239;28;8751;-68
2022/04/15 00:53:09;;;;;;;;;79.20;71.60;27.20;99.90;;;;;;5056238;28;8755;-69
2022/04/15 00:55:35;;;;;;;;;78.40;69.60;27.20;99.90;;;;;;5034816;28;8774;-68
2022/04/15 00:58:04;;;;;;;;;78.00;71.60;27.10;99.90;;;;;;5019136;28;8757;-68
2022/04/15 01:00:32;;;;;;;;;82.80;71.00;27.20;99.90;;;;;;5055535;28;8850;-68
2022/04/15 01:03:01;;;;;;;;;84.60;76.60;27.20;99.90;;;;;;5038936;28;9523;-68
2022/04/15 01:05:28;;;;;;;;;79.80;73.40;27.30;99.90;;;;;;5032843;28;8874;-69
2022/04/15 01:07:56;;;;;;;;;78.80;64.40;27.30;99.90;;;;;;5035173;28;8749;-68
2022/04/15 01:10:24;;;;;;;;;71.60;58.20;27.20;99.90;;;;;;5019112;28;8764;-67
2022/04/15 01:12:53;;;;;;;;;74.20;60.20;27.20;99.90;;;;;;5019187;28;8756;-68
2022/04/15 01:15:21;;;;;;;;;71.40;61.60;27.10;99.90;;;;;;5035581;28;8777;-67
2022/04/15 01:17:48;;;;;;;;;75.40;61.20;27.20;99.90;;;;;;5035993;28;8875;-69
2022/04/15 01:20:15;;;;;;;;;73.00;59.60;27.30;99.90;;;;;;5040000;28;8767;-68
2022/04/15 01:22:43;;;;;;;;;68.20;54.00;27.30;99.90;;;;;;5055817;28;8735;-68
2022/04/15 01:25:12;;;;;;;;;70.40;56.60;27.30;99.90;;;;;;5073431;28;8719;-68
2022/04/15 01:27:46;;;;;;;;;69.60;53.40;27.30;99.90;;;;;;5041839;28;8794;-69
2022/04/15 01:30:20;;;;;;;;;67.00;52.80;27.30;99.90;;;;;;5075058;28;8777;-68
2022/04/15 01:32:47;;;;;;;;;71.20;56.80;27.40;99.90;;;;;;5060079;28;8908;-69
2022/04/15 01:35:18;;;;;;;;;72.20;56.60;27.50;99.90;;;;;;5043358;28;8753;-68
2022/04/15 01:37:45;;;;;;;;;67.20;52.20;27.50;99.90;;;;;;5039299;28;8896;-68
2022/04/15 01:40:13;;;;;;;;;70.00;52.20;27.50;99.90;;;;;;5022165;28;8875;-69
2022/04/15 01:42:40;;;;;;;;;68.60;56.00;27.50;99.90;;;;;;5039275;28;8765;-69
2022/04/15 01:45:07;;;;;;;;;69.00;53.80;27.50;99.90;;;;;;5021446;28;8753;-68
2022/04/15 01:47:40;;;;;;;;;72.20;56.00;27.50;99.90;;;;;;5038629;28;8792;-69
2022/04/15 01:50:08;;;;;;;;;73.00;58.40;27.60;99.90;;;;;;5024393;28;9537;-69
2022/04/15 01:52:34;;;;;;;;;72.40;59.20;27.60;99.90;;;;;;5041016;28;8740;-68
2022/04/15 01:55:01;;;;;;;;;75.60;61.80;27.70;99.90;;;;;;5059598;28;8851;-69
2022/04/15 01:57:28;;;;;;;;;71.80;57.40;27.70;99.90;;;;;;5058569;28;8740;-68
2022/04/15 01:59:55;;;;;;;;;70.00;53.20;27.70;99.90;;;;;;5059356;28;8760;-69
2022/04/15 02:02:24;;;;;;;;;73.80;58.40;27.70;99.90;;;;;;5074145;28;8776;-68
2022/04/15 02:04:51;;;;;;;;;71.20;58.00;27.80;99.90;;;;;;5040671;28;8755;-69
2022/04/15 02:07:20;;;;;;;;;69.20;55.00;27.80;99.90;;;;;;5039294;28;8754;-67
2022/04/15 02:09:47;;;;;;;;;74.40;61.40;27.90;99.90;;;;;;5038996;28;8761;-69
2022/04/15 02:12:13;;;;;;;;;69.60;52.80;28.10;99.90;;;;;;5037760;28;8735;-69
2022/04/15 02:14:40;;;;;;;;;71.00;54.40;28.20;99.90;;;;;;5053829;28;8770;-69
2022/04/15 02:17:07;;;;;;;;;70.60;53.80;28.20;99.90;;;;;;5021042;28;8743;-68
2022/04/15 02:19:34;;;;;;;;;63.00;51.40;28.20;99.90;;;;;;5054316;28;8789;-68
2022/04/15 02:22:00;;;;;;;;;70.20;55.00;28.20;99.90;;;;;;5057718;28;8744;-69
2022/04/15 02:24:27;;;;;;;;;68.80;52.40;28.20;99.90;;;;;;5058662;28;8759;-68
2022/04/15 02:26:54;;;;;;;;;63.40;51.40;28.40;99.90;;;;;;5041371;28;8740;-68
2022/04/15 02:29:20;;;;;;;;;70.80;55.00;28.40;99.90;;;;;;5058733;28;8878;-67
2022/04/15 02:31:47;;;;;;;;;63.00;50.60;28.40;99.90;;;;;;5059002;28;8748;-68
2022/04/15 02:34:14;;;;;;;;;63.20;49.20;28.40;99.90;;;;;;5059470;28;8709;-68
2022/04/15 02:36:40;;;;;;;;;63.40;50.60;28.40;99.90;;;;;;5041639;28;8723;-68
2022/04/15 02:39:10;;;;;;;;;67.20;51.80;28.50;99.90;;;;;;5038462;28;8738;-68
2022/04/15 02:41:39;;;;;;;;;67.40;51.00;28.60;99.90;;;;;;5038528;28;8754;-68
2022/04/15 02:44:07;;;;;;;;;64.20;49.40;28.70;99.90;;;;;;5038435;28;8751;-68
2022/04/15 02:46:35;;;;;;;;;69.80;51.80;28.80;99.90;;;;;;5038408;28;8753;-68
2022/04/15 02:49:02;;;;;;;;;56.80;46.20;28.70;99.90;;;;;;5039299;28;8830;-68
2022/04/15 02:51:29;;;;;;;;;66.20;51.60;28.80;99.90;;;;;;5051900;28;9110;-68
2022/04/15 02:53:56;;;;;;;;;64.00;50.60;28.80;99.90;;;;;;5058270;28;8823;-68
2022/04/15 02:56:22;;;;;;;;;64.20;50.00;28.80;99.90;;;;;;5057774;28;8752;-68
2022/04/15 02:58:49;;;;;;;;;64.20;52.00;28.90;99.90;;;;;;5058107;28;8748;-68
2022/04/15 03:01:16;;;;;;;;;67.60;52.00;29.00;99.90;;;;;;5057687;28;8777;-68
2022/04/15 03:03:42;;;;;;;;;67.20;52.80;29.10;99.90;;;;;;5039566;28;8721;-68
2022/04/15 03:06:09;;;;;;;;;58.80;48.40;29.00;99.90;;;;;;5046551;28;8775;-68
2022/04/15 03:08:36;;;;;;;;;65.50;50.75;29.10;99.90;;;;;;5052502;28;8762;-68
2022/04/15 03:11:02;;;;;;;;;63.50;50.00;29.10;99.90;;;;;;5037454;28;8754;-68
2022/04/15 03:13:29;;;;;;;;;67.40;51.20;29.30;99.90;;;;;;5037390;28;8866;-67
2022/04/15 03:15:59;;;;;;;;;63.00;51.60;29.30;99.90;;;;;;5054081;28;8777;-68
2022/04/15 03:18:26;;;;;;;;;66.20;52.00;29.30;99.90;;;;;;5019739;28;8750;-67
2022/04/15 03:20:53;;;;;;;;;66.00;51.00;29.40;99.90;;;;;;5046592;28;8775;-67
2022/04/15 03:23:19;;;;;;;;;65.60;50.40;29.40;99.90;;;;;;5057566;28;9448;-68
2022/04/15 03:25:47;;;;;;;;;63.80;51.00;29.30;99.90;;;;;;5039940;28;8744;-68
2022/04/15 03:28:15;;;;;;;;;64.20;48.80;29.40;99.90;;;;;;5057950;28;8768;-68
2022/04/15 03:30:41;;;;;;;;;68.40;52.80;29.50;99.90;;;;;;5057519;28;8756;-68
2022/04/15 03:33:08;;;;;;;;;64.40;51.40;29.50;99.90;;;;;;5057853;28;8764;-68
2022/04/15 03:35:35;;;;;;;;;62.40;49.40;29.50;99.90;;;;;;5050611;28;8758;-68
2022/04/15 03:38:02;;;;;;;;;68.00;52.60;29.50;99.90;;;;;;5037424;28;9455;-68
2022/04/15 03:40:28;;;;;;;;;63.20;51.20;29.60;99.90;;;;;;5002951;28;8793;-68
2022/04/15 03:42:56;;;;;;;;;69.80;53.40;29.60;99.90;;;;;;5037710;28;8788;-68
2022/04/15 03:45:23;;;;;;;;;64.60;52.40;29.70;99.90;;;;;;5018981;28;8766;-67
2022/04/15 03:47:50;;;;;;;;;64.20;49.80;29.60;99.90;;;;;;5036634;28;8833;-68
2022/04/15 03:50:17;;;;;;;;;67.80;52.40;29.70;99.90;;;;;;5056000;28;8946;-66
2022/04/15 03:52:46;;;;;;;;;67.20;53.40;29.90;99.90;;;;;;5056833;28;8737;-68
2022/04/15 03:55:14;;;;;;;;;66.80;52.40;30.00;99.90;;;;;;5039770;28;8740;-67
2022/04/15 03:57:41;;;;;;;;;64.80;51.80;30.10;99.90;;;;;;5039268;28;10385;-68
2022/04/15 04:00:10;;;;;;;;;68.20;54.00;30.10;99.90;;;;;;5038915;28;8772;-68
2022/04/15 04:02:37;;;;;;;;;63.20;50.40;30.00;99.90;;;;;;5047181;28;8899;-69
2022/04/15 04:05:04;;;;;;;;;64.00;50.80;30.00;99.90;;;;;;5070144;28;8748;-68
2022/04/15 04:07:31;;;;;;;;;65.20;51.80;30.10;99.90;;;;;;5019201;28;8828;-67
2022/04/15 04:09:58;;;;;;;;;62.20;48.20;30.00;99.90;;;;;;5037594;28;8739;-68
2022/04/15 04:12:24;;;;;;;;;65.00;51.20;30.20;99.90;;;;;;5019364;28;8858;-68
2022/04/15 04:14:51;;;;;;;;;62.20;49.80;30.10;99.90;;;;;;5036855;28;8734;-68
2022/04/15 04:17:18;;;;;;;;;68.80;52.60;30.20;99.90;;;;;;5036648;28;8734;-68
2022/04/15 04:19:46;;;;;;;;;61.60;48.60;30.30;99.90;;;;;;5036884;28;9447;-67
2022/04/15 04:22:13;;;;;;;;;66.60;50.00;30.20;99.90;;;;;;5056996;28;8776;-68
2022/04/15 04:24:40;;;;;;;;;62.40;49.00;30.30;99.90;;;;;;5056607;28;8741;-68
2022/04/15 04:27:06;;;;;;;;;64.20;50.80;30.40;99.90;;;;;;5056461;28;8772;-67
2022/04/15 04:29:33;;;;;;;;;66.80;51.00;30.70;99.90;;;;;;5038073;28;9405;-67
2022/04/15 04:32:00;;;;;;;;;64.60;51.40;30.40;99.90;;;;;;5072136;28;8902;-68
2022/04/15 04:34:27;;;;;;;;;63.80;51.60;30.50;99.90;;;;;;5056499;28;8828;-67
2022/04/15 04:36:54;;;;;;;;;68.20;51.80;30.60;99.90;;;;;;5039940;28;8719;-68
2022/04/15 04:39:25;;;;;;;;;62.40;49.60;30.60;99.90;;;;;;5018406;28;9573;-68
2022/04/15 04:41:52;;;;;;;;;62.00;49.80;30.70;99.90;;;;;;5018832;28;8753;-67
2022/04/15 04:44:19;;;;;;;;;65.20;49.40;30.70;99.90;;;;;;5036671;28;8820;-67
2022/04/15 04:46:45;;;;;;;;;64.60;52.00;30.50;99.90;;;;;;5036962;28;8779;-68
2022/04/15 04:49:12;;;;;;;;;62.40;49.40;30.70;99.90;;;;;;5036983;28;9496;-68
2022/04/15 04:51:39;;;;;;;;;63.60;49.80;30.90;99.90;;;;;;5066863;28;8745;-68
2022/04/15 04:54:06;;;;;;;;;62.50;47.25;30.80;99.90;;;;;;5057301;28;10165;-68
2022/04/15 04:56:32;;;;;;;;;66.00;50.20;30.90;99.90;;;;;;5071793;28;8748;-68
2022/04/15 04:58:59;;;;;;;;;64.60;50.60;31.00;99.90;;;;;;5056357;28;8812;-67
2022/04/15 05:01:26;;;;;;;;;66.60;51.80;31.00;99.90;;;;;;5059187;28;9350;-67
2022/04/15 05:03:55;;;;;;;;;61.80;49.80;31.10;99.90;;;;;;5060588;28;8727;-68
2022/04/15 05:06:22;;;;;;;;;64.00;49.00;31.20;99.90;;;;;;5029053;28;8767;-67
2022/04/15 05:08:50;;;;;;;;;64.40;51.80;31.20;99.90;;;;;;5039773;28;8787;-67
2022/04/15 05:11:17;;;;;;;;;63.60;49.40;31.20;99.90;;;;;;5039884;28;8776;-68
2022/04/15 05:13:43;;;;;;;;;62.60;50.40;31.20;99.90;;;;;;5039946;28;8726;-68
2022/04/15 05:16:10;;;;;;;;;62.60;50.00;31.40;99.90;;;;;;5022693;28;8788;-68
2022/04/15 05:18:37;;;;;;;;;61.75;48.75;31.20;99.90;;;;;;5039428;28;8812;-67
2022/04/15 05:21:03;;;;;;;;;59.20;47.80;31.60;99.90;;;;;;5049535;28;8775;-68
2022/04/15 05:23:30;;;;;;;;;61.20;48.40;31.60;99.90;;;;;;5059737;28;8758;-67
2022/04/15 05:25:57;;;;;;;;;61.20;47.20;31.60;99.90;;;;;;5060152;28;8837;-68
2022/04/15 05:28:23;;;;;;;;;64.20;51.00;31.50;99.90;;;;;;5059735;28;8782;-67
2022/04/15 05:30:50;;;;;;;;;63.00;50.00;31.30;99.90;;;;;;5042370;28;8738;-68
2022/04/15 05:33:17;;;;;;;;;62.80;49.80;31.30;99.90;;;;;;5058661;28;8766;-66
2022/04/15 05:35:47;;;;;;;;;59.40;48.20;31.60;99.90;;;;;;5051866;28;8797;-68
2022/04/15 05:38:13;;;;;;;;;61.60;49.80;31.80;99.90;;;;;;5022129;28;8764;-68
2022/04/15 05:40:40;;;;;;;;;63.40;50.60;31.70;99.90;;;;;;5038992;28;8760;-68
2022/04/15 05:43:07;;;;;;;;;60.60;49.60;31.60;99.90;;;;;;5022192;28;8764;-68
2022/04/15 05:45:33;;;;;;;;;63.40;51.20;31.70;99.90;;;;;;5039164;28;8741;-67
2022/04/15 05:48:00;;;;;;;;;63.80;51.20;31.60;99.90;;;;;;5039330;28;8898;-68
2022/04/15 05:50:27;;;;;;;;;61.50;48.25;31.70;99.90;;;;;;5026355;28;8775;-67
2022/04/15 05:52:53;;;;;;;;;58.60;47.40;31.80;99.90;;;;;;5059640;28;8731;-68
2022/04/15 05:55:20;;;;;;;;;54.60;44.60;31.90;99.90;;;;;;5059403;28;8775;-67
2022/04/15 05:57:47;;;;;;;;;59.60;47.40;32.00;99.90;;;;;;5074378;28;8763;-68
2022/04/15 06:00:14;;;;;;;;;57.80;46.60;31.90;99.90;;;;;;5041407;28;8735;-68
2022/04/15 06:02:40;;;;;;;;;60.80;49.00;31.90;99.90;;;;;;5058759;28;8849;-67
2022/04/15 06:05:08;;;;;;;;;61.00;47.20;32.10;99.90;;;;;;5056303;28;9439;-68
2022/04/15 06:07:35;;;;;;;;;63.40;50.00;32.20;99.90;;;;;;5020625;28;8764;-67
2022/04/15 06:10:02;;;;;;;;;63.60;51.00;32.20;99.80;;;;;;5039399;28;8761;-68
2022/04/15 06:12:54;;;;;;;;;60.60;48.60;32.10;99.90;;;;;;5038448;28;8745;-68
2022/04/15 06:15:33;;;;;;;;;47.60;36.20;32.10;99.90;;;;;;5038843;28;8870;-67
2022/04/15 06:18:03;;;;;;;;;62.20;48.60;32.10;99.90;;;;;;5021011;28;9131;-68
2022/04/15 06:20:30;;;;;;;;;62.60;50.00;32.10;99.90;;;;;;5043831;28;8870;-67
2022/04/15 06:22:57;;;;;;;;;62.40;49.80;32.40;98.80;;;;;;5040973;28;8747;-68
2022/04/15 06:25:26;;;;;;;;;64.40;50.20;32.40;99.90;;;;;;5058959;28;8769;-68
2022/04/15 06:27:54;;;;;;;;;58.80;46.00;32.40;98.70;;;;;;5058966;28;8820;-68
2022/04/15 06:30:21;;;;;;;;;62.80;49.40;32.50;97.90;;;;;;5057954;28;8770;-67
2022/04/15 06:32:49;;;;;;;;;55.20;45.00;32.30;98.60;;;;;;5074068;28;8774;-68
2022/04/15 06:35:16;;;;;;;;;60.40;48.20;32.20;98.30;;;;;;5054984;28;8753;-67
2022/04/15 06:37:42;;;;;;;;;64.00;48.40;32.10;99.10;;;;;;5038251;28;9386;-67
2022/04/15 06:40:10;;;;;;;;;62.40;50.20;32.10;98.70;;;;;;5039021;28;8733;-68
2022/04/15 06:42:36;;;;;;;;;59.40;48.40;32.40;98.10;;;;;;5038115;28;8954;-68
2022/04/15 06:45:04;;;;;;;;;62.40;50.40;32.60;97.50;;;;;;5020773;28;8761;-68
2022/04/15 06:47:30;;;;;;;;;56.00;45.40;32.60;95.90;;;;;;5038097;28;8769;-68
2022/04/15 06:49:57;;;;;;;;;64.20;50.00;32.50;96.20;;;;;;5039265;28;8753;-68
2022/04/15 06:52:24;;;;;;;;;64.40;49.40;32.60;96.70;;;;;;5058316;28;8862;-67
2022/04/15 06:54:50;;;;;;;;;65.20;50.20;32.50;95.90;;;;;;5040165;28;9671;-68
2022/04/15 06:57:17;;;;;;;;;60.40;47.60;32.50;96.00;;;;;;5057594;28;8742;-66
2022/04/15 06:59:44;;;;;;;;;56.40;45.80;32.90;95.60;;;;;;5058298;28;9450;-68
2022/04/15 07:02:10;;;;;;;;;59.20;47.20;33.00;95.60;;;;;;5057593;28;8798;-68
2022/04/15 07:04:37;;;;;;;;;60.40;46.80;32.70;96.10;;;;;;5057792;28;8878;-68
2022/04/15 07:07:04;;;;;;;;;62.60;49.20;32.80;95.60;;;;;;5055140;28;8737;-67
2022/04/15 07:09:31;;;;;;;;;61.40;47.60;32.80;95.50;;;;;;5037277;28;9116;-67
2022/04/15 07:11:58;;;;;;;;;58.60;46.20;32.80;96.90;;;;;;5037680;28;8732;-68
2022/04/15 07:14:25;;;;;;;;;60.80;48.20;33.20;94.10;;;;;;5053129;28;8741;-67
2022/04/15 07:16:51;;;;;;;;;61.20;47.00;33.40;93.30;;;;;;5037873;28;8717;-68
2022/04/15 07:19:18;;;;;;;;;60.20;47.40;32.90;94.80;;;;;;5037742;28;8717;-66
2022/04/15 07:21:45;;;;;;;;;57.40;47.00;32.90;94.40;;;;;;5052759;28;9457;-67
2022/04/15 07:24:12;;;;;;;;;61.60;47.60;33.20;93.30;;;;;;5056898;28;8703;-68
2022/04/15 07:26:38;;;;;;;;;54.80;46.20;33.10;94.90;;;;;;5057168;28;8762;-68
2022/04/15 07:29:08;;;;;;;;;60.60;46.40;33.20;94.10;;;;;;5057307;28;8711;-68
2022/04/15 07:31:34;;;;;;;;;59.00;47.00;33.20;94.80;;;;;;5039179;28;9364;-67
2022/04/15 07:34:01;;;;;;;;;53.60;44.00;33.10;93.80;;;;;;5039961;28;8852;-67
2022/04/15 07:39:06;;;;;;;;;58.40;45.20;33.20;93.20;;;;;;5037072;28;8910;-67
2022/04/15 07:41:36;;;;;;;;;55.60;45.20;33.00;94.60;;;;;;5037026;28;8773;-67
2022/04/15 07:44:10;;;;;;;;;50.60;39.60;33.10;94.40;;;;;;5019407;28;8771;-68
2022/04/15 07:46:37;;;;;;;;;57.80;48.40;33.30;93.80;;;;;;5019243;28;8752;-68
2022/04/15 07:49:04;;;;;;;;;57.00;46.20;33.50;93.80;;;;;;5036489;28;8713;-67
2022/04/15 07:51:31;;;;;;;;;60.40;47.80;33.40;93.60;;;;;;5049179;28;8787;-68
2022/04/15 07:53:58;;;;;;;;;52.40;42.00;33.60;94.10;;;;;;5038874;28;8762;-68
2022/04/15 07:56:25;;;;;;;;;60.80;46.60;33.80;92.90;;;;;;5038827;28;8775;-67
2022/04/15 07:58:52;;;;;;;;;58.20;46.20;33.70;93.00;;;;;;5056651;28;8755;-67
2022/04/15 08:01:19;;;;;;;;;25.40;19.60;33.50;93.60;;;;;;5039792;28;8751;-66
2022/04/15 08:03:46;;;;;;;;;58.40;46.20;33.60;93.70;;;;;;5056654;28;9478;-68
2022/04/15 08:06:14;;;;;;;;;57.20;45.80;33.60;95.10;;;;;;5045573;28;8761;-68
2022/04/15 08:08:40;;;;;;;;;56.00;45.80;33.80;94.60;;;;;;5019811;28;8796;-68
2022/04/15 08:11:07;;;;;;;;;56.00;46.60;33.80;93.20;;;;;;5036891;28;8772;-68
2022/04/15 08:13:34;;;;;;;;;60.40;46.80;34.00;92.80;;;;;;5019039;28;8884;-68
2022/04/15 08:16:01;;;;;;;;;53.80;42.60;33.80;93.00;;;;;;5019550;28;8934;-68
2022/04/15 08:18:27;;;;;;;;;54.00;41.60;33.90;92.80;;;;;;5036350;28;8957;-67
2022/04/15 08:20:56;;;;;;;;;54.20;44.20;33.90;92.20;;;;;;5045245;28;8788;-68
2022/04/15 08:23:31;;;;;;;;;56.50;44.75;33.80;93.50;;;;;;5056339;28;8759;-68
2022/04/15 08:25:58;;;;;;;;;56.80;44.20;33.70;93.80;;;;;;5056538;28;8857;-68
2022/04/15 08:28:24;;;;;;;;;57.20;46.20;33.80;93.50;;;;;;5038862;28;8797;-67
2022/04/15 08:30:51;;;;;;;;;59.60;47.40;33.90;93.80;;;;;;5056722;28;8766;-68
2022/04/15 08:33:18;;;;;;;;;57.00;46.80;33.90;92.40;;;;;;5039489;28;8782;-68
2022/04/15 08:35:44;;;;;;;;;59.25;45.75;34.10;92.40;;;;;;5035608;28;9528;-68
2022/04/15 08:38:13;;;;;;;;;57.60;46.20;33.80;92.40;;;;;;5040664;28;8761;-68
2022/04/15 08:40:42;;;;;;;;;59.80;46.80;33.70;93.00;;;;;;5040484;28;8749;-68
2022/04/15 08:43:10;;;;;;;;;53.80;44.00;33.90;92.40;;;;;;5007950;28;8802;-68
2022/04/15 08:45:40;;;;;;;;;59.60;46.80;34.00;90.70;;;;;;5055542;28;8824;-67
2022/04/15 08:48:07;;;;;;;;;54.80;44.00;33.90;91.50;;;;;;5023141;28;8785;-68
2022/04/15 08:50:33;;;;;;;;;54.80;44.00;33.70;90.90;;;;;;5046070;28;8770;-68
2022/04/15 08:53:01;;;;;;;;;53.00;42.00;33.80;90.90;;;;;;5060321;28;8758;-68
2022/04/15 08:55:28;;;;;;;;;56.60;45.20;34.10;90.10;;;;;;5042009;28;8830;-67
2022/04/15 08:57:55;;;;;;;;;53.80;42.80;34.10;90.60;;;;;;5026865;28;8781;-68
2022/04/15 09:00:23;;;;;;;;;53.40;42.80;33.90;90.90;;;;;;5042034;28;8763;-67
2022/04/15 09:02:54;;;;;;;;;54.40;42.40;33.90;91.30;;;;;;5059267;28;8780;-68
2022/04/15 09:05:25;;;;;;;;;53.20;41.80;33.80;91.00;;;;;;5037646;28;8809;-68
2022/04/15 09:08:18;;;;;;;;;54.80;45.40;34.20;89.90;;;;;;5054930;28;8782;-68
2022/04/15 09:10:53;;;;;;;;;56.20;44.00;34.20;88.40;;;;;;5040276;28;8804;-68
2022/04/15 09:13:21;;;;;;;;;54.20;43.40;34.10;90.10;;;;;;5054842;28;8754;-68
2022/04/15 09:15:47;;;;;;;;;50.80;39.20;34.00;89.50;;;;;;5040362;28;8742;-68
2022/04/15 09:18:36;;;;;;;;;55.00;44.80;34.10;89.60;;;;;;5055749;28;8758;-68
2022/04/15 09:21:21;;;;;;;;;49.60;41.40;34.10;90.20;;;;;;5049752;28;8850;-68
2022/04/15 09:23:55;;;;;;;;;51.60;42.40;34.10;90.90;;;;;;5060245;28;8744;-68
2022/04/15 09:26:22;;;;;;;;;54.20;43.60;33.80;89.40;;;;;;5059744;28;8768;-68
2022/04/15 09:28:49;;;;;;;;;56.20;43.20;33.80;89.20;;;;;;5059667;28;8767;-68
2022/04/15 09:31:17;;;;;;;;;55.80;42.40;33.80;88.30;;;;;;5060308;28;8744;-68
2022/04/15 09:33:56;;;;;;;;;55.00;42.80;33.70;90.00;;;;;;5059841;28;8740;-68
2022/04/15 09:36:33;;;;;;;;;54.40;43.20;33.60;90.50;;;;;;5046712;28;8766;-67
2022/04/15 09:39:16;;;;;;;;;52.00;41.20;33.80;89.60;;;;;;5039925;28;8774;-68
2022/04/15 09:41:56;;;;;;;;;50.20;40.80;33.80;87.30;;;;;;5053568;28;9411;-68
2022/04/15 09:44:31;;;;;;;;;53.80;43.80;33.80;90.20;;;;;;5054341;28;8766;-68
2022/04/15 09:47:03;;;;;;;;;52.00;40.75;33.70;90.10;;;;;;5052911;28;8742;-68
2022/04/15 09:49:34;;;;;;;;;50.60;41.00;33.70;90.20;;;;;;5038935;28;8898;-68
2022/04/15 09:52:03;;;;;;;;;53.00;42.80;33.70;90.40;;;;;;5057803;28;8765;-68
2022/04/15 09:54:31;;;;;;;;;54.60;45.00;33.50;90.30;;;;;;5041961;28;8799;-68
2022/04/15 09:56:59;;;;;;;;;53.80;43.20;33.40;90.50;;;;;;5057204;28;8772;-68
2022/04/15 09:59:26;;;;;;;;;57.00;44.00;33.40;90.50;;;;;;5058810;28;8772;-68
2022/04/15 10:02:04;;;;;;;;;62.80;48.40;33.40;90.00;;;;;;5059300;28;8732;-68
2022/04/15 10:04:31;;;;;;;;;58.60;45.40;33.40;89.40;;;;;;5058686;28;8855;-67
2022/04/15 10:07:00;;;;;;;;;56.40;44.20;33.50;88.50;;;;;;5024219;28;8741;-68
2022/04/15 10:09:27;;;;;;;;;57.00;46.00;33.40;88.70;;;;;;5038574;28;8801;-68
2022/04/15 10:11:54;;;;;;;;;55.25;45.25;33.20;88.90;;;;;;5021195;28;8806;-68
2022/04/15 10:14:21;;;;;;;;;50.50;42.00;33.40;89.50;;;;;;5021087;28;8800;-67
2022/04/15 10:16:48;;;;;;;;;57.40;43.80;33.40;89.90;;;;;;5038706;28;8749;-68
2022/04/15 10:19:14;;;;;;;;;54.60;43.40;33.30;90.10;;;;;;5039254;28;8722;-68
2022/04/15 10:21:44;;;;;;;;;56.60;43.80;33.20;90.10;;;;;;5053656;28;8767;-68
2022/04/15 10:24:10;;;;;;;;;57.00;45.60;33.20;90.20;;;;;;5041390;28;8758;-68
2022/04/15 10:26:45;;;;;;;;;55.20;44.40;33.20;90.80;;;;;;5058585;28;8814;-68
2022/04/15 10:29:12;;;;;;;;;50.00;42.40;33.10;90.90;;;;;;5058672;28;8762;-68
2022/04/15 10:31:56;;;;;;;;;55.80;44.60;33.00;91.10;;;;;;5040681;28;8751;-68
2022/04/15 10:34:23;;;;;;;;;51.00;42.75;33.00;91.50;;;;;;5063568;28;8763;-68
2022/04/15 10:36:51;;;;;;;;;53.80;42.20;33.00;91.50;;;;;;5041855;28;8748;-68
2022/04/15 10:39:22;;;;;;;;;57.40;45.60;33.00;91.40;;;;;;5038108;28;8765;-67
2022/04/15 10:41:50;;;;;;;;;45.40;37.40;33.00;91.70;;;;;;5021639;28;8784;-68
2022/04/15 10:44:29;;;;;;;;;52.60;43.20;33.00;92.30;;;;;;5038244;28;8765;-68
2022/04/15 10:47:19;;;;;;;;;54.80;43.00;33.10;92.80;;;;;;5038191;28;8759;-68
2022/04/15 10:50:06;;;;;;;;;58.20;46.00;33.10;93.20;;;;;;5028602;28;8769;-68
2022/04/15 10:52:36;;;;;;;;;55.60;44.00;33.00;93.70;;;;;;5038192;28;8879;-68
2022/04/15 10:55:05;;;;;;;;;56.80;44.20;33.00;93.30;;;;;;5021117;28;8839;-68
2022/04/15 10:57:36;;;;;;;;;47.25;40.75;32.90;94.40;;;;;;5036755;28;8793;-68
2022/04/15 11:03:00;;;;;;;;;55.20;44.40;32.80;94.90;;;;;;5038429;28;8768;-68
2022/04/15 11:05:42;;;;;;;;;57.20;45.00;32.80;93.70;;;;;;5021370;28;8767;-67
2022/04/15 11:08:13;;;;;;;;;61.20;46.20;32.80;92.90;;;;;;5037800;28;8774;-68
2022/04/15 11:10:44;;;;;;;;;56.80;45.20;32.80;95.10;;;;;;5053392;28;10093;-68
2022/04/15 11:13:23;;;;;;;;;59.40;46.40;32.80;96.10;;;;;;5038443;28;8880;-68
2022/04/15 11:15:57;;;;;;;;;57.40;47.00;32.70;95.20;;;;;;5036939;28;8797;-68
2022/04/15 11:18:24;;;;;;;;;56.60;46.80;32.60;95.40;;;;;;5037975;28;8776;-68
2022/04/15 11:20:52;;;;;;;;;56.20;43.80;32.60;98.40;;;;;;5039770;28;8825;-68
2022/04/15 11:23:18;;;;;;;;;54.60;43.80;32.60;97.40;;;;;;5057524;28;8748;-67
2022/04/15 11:25:45;;;;;;;;;56.00;45.00;32.50;97.10;;;;;;5057210;28;8811;-68
2022/04/15 11:28:12;;;;;;;;;57.00;44.80;32.50;96.60;;;;;;5057849;28;8915;-68
2022/04/15 11:30:39;;;;;;;;;56.20;44.40;32.50;96.90;;;;;;5039490;28;8871;-68
2022/04/15 11:33:06;;;;;;;;;61.60;47.40;32.50;97.00;;;;;;5039907;28;8787;-68
2022/04/15 11:35:34;;;;;;;;;61.20;48.20;32.40;97.70;;;;;;5066703;28;8844;-67
2022/04/15 11:38:05;;;;;;;;;62.20;47.80;32.40;97.90;;;;;;5019452;28;8791;-68
2022/04/15 11:40:35;;;;;;;;;61.60;48.40;32.40;97.80;;;;;;5019552;28;8834;-68
2022/04/15 11:43:11;;;;;;;;;61.60;47.00;32.40;98.70;;;;;;5037855;28;8754;-68
2022/04/15 11:45:42;;;;;;;;;60.60;48.60;32.30;99.90;;;;;;5036970;28;8779;-68
2022/04/15 11:48:22;;;;;;;;;57.80;44.80;32.20;99.90;;;;;;5035677;28;8986;-68
2022/04/15 11:50:50;;;;;;;;;61.00;46.80;32.20;99.90;;;;;;5044768;28;8752;-69
2022/04/15 11:53:18;;;;;;;;;61.60;48.60;32.10;99.90;;;;;;5071801;28;8745;-68
2022/04/15 11:55:58;;;;;;;;;62.00;49.00;32.20;99.90;;;;;;5056856;28;8800;-68
2022/04/15 11:58:31;;;;;;;;;58.50;47.00;32.30;98.00;;;;;;5038489;28;8748;-68
2022/04/15 12:00:58;;;;;;;;;59.60;46.60;32.30;97.00;;;;;;5055896;28;8876;-69
2022/04/15 12:03:26;;;;;;;;;64.00;49.60;32.30;96.60;;;;;;5071724;28;9568;-68
2022/04/15 12:05:54;;;;;;;;;55.80;44.20;32.20;96.40;;;;;;5030685;28;8773;-68
2022/04/15 12:08:21;;;;;;;;;59.00;47.80;32.20;96.40;;;;;;5036028;28;8813;-68
2022/04/15 12:10:48;;;;;;;;;61.20;48.80;32.10;96.50;;;;;;5052038;28;8760;-68
2022/04/15 12:13:17;;;;;;;;;60.20;47.00;32.10;96.20;;;;;;5019843;28;8749;-69
2022/04/15 12:15:45;;;;;;;;;60.80;48.80;32.10;96.30;;;;;;5036319;28;8764;-68
2022/04/15 12:18:12;;;;;;;;;58.60;47.60;32.00;96.50;;;;;;5036789;28;8823;-68
2022/04/15 12:20:40;;;;;;;;;59.50;47.50;32.00;96.00;;;;;;5042746;28;8787;-68
2022/04/15 12:23:11;;;;;;;;;56.00;45.40;31.90;95.90;;;;;;5056471;28;8808;-68
2022/04/15 12:31:31;;;;;;;;;60.20;47.00;31.70;95.60;;;;;;4995293;28;8855;-68
2022/04/15 12:33:59;;;;;;;;;59.80;46.80;31.70;95.90;;;;;;5047218;28;8742;-68
2022/04/15 12:36:38;;;;;;;;;61.40;46.40;31.70;96.00;;;;;;5025791;28;8793;-68
2022/04/15 12:39:05;;;;;;;;;55.80;45.80;31.60;96.00;;;;;;5036751;28;8785;-68
2022/04/15 12:41:48;;;;;;;;;59.20;45.00;31.70;96.10;;;;;;5035888;28;8973;-68
2022/04/15 12:44:23;;;;;;;;;57.25;46.25;31.60;96.20;;;;;;5036693;28;8760;-68
2022/04/15 12:47:00;;;;;;;;;59.40;47.20;31.60;96.10;;;;;;5036295;28;9377;-68
2022/04/15 12:49:33;;;;;;;;;57.00;45.20;31.50;95.80;;;;;;5036486;28;9965;-67
2022/04/15 12:52:16;;;;;;;;;58.80;46.20;31.60;95.60;;;;;;5054717;28;8787;-68
2022/04/15 12:55:01;;;;;;;;;51.60;42.60;31.50;95.40;;;;;;5056147;28;8763;-68